Time;durP1;ratioP1;P1;durP2;ratioP2;P2;SDS_P1;SDS_P2;PMS_P1;PMS_P2;Temp;Humidity;BMP_temperature;BMP_pressure;BME280_temperature;BME280_humidity;BME280_pressure;Samples;Min_cycle;Max_cycle;Signal;HPM_P1;HPM_P2
2022/01/25 00:26:33;;;;;;;78.78;52.42;;;;;;;;;;5111028;28;20579;-70
2022/01/25 00:29:27;;;;;;;82.15;53.80;;;4.00;99.90;;;;;;5109803;28;20047;-70
2022/01/25 00:31:53;;;;;;;74.82;50.00;;;;;;;;;;5109726;28;20055;-70
2022/01/25 00:34:19;;;;;;;76.47;51.63;;;4.00;99.90;;;;;;5109392;28;20060;-70
2022/01/25 00:36:45;;;;;;;77.38;50.78;;;;;;;;;;5110744;28;20053;-70
2022/01/25 00:39:11;;;;;;;76.28;50.17;;;3.60;99.90;;;;;;5109858;28;20487;-71
2022/01/25 00:41:36;;;;;;;76.18;50.70;;;3.70;99.90;;;;;;5126583;28;20047;-70
2022/01/25 00:44:05;;;;;;;76.07;51.10;;;3.90;99.90;;;;;;5110495;28;20039;-70
2022/01/25 00:46:31;;;;;;;76.35;48.38;;;4.50;99.90;;;;;;5092516;28;20130;-71
2022/01/25 00:49:02;;;;;;;72.57;49.45;;;3.80;99.90;;;;;;5110481;28;20550;-71
2022/01/25 00:57:03;;;;;;;76.63;50.65;;;;;;;;;;5087078;28;20051;-70
2022/01/25 00:59:33;;;;;;;73.55;50.05;;;4.00;99.90;;;;;;5092023;28;20047;-70
2022/01/25 01:02:04;;;;;;;72.15;48.35;;;3.90;99.90;;;;;;5109005;28;20135;-71
2022/01/25 01:04:31;;;;;;;72.40;46.88;;;3.70;99.90;;;;;;5109303;28;20050;-71
2022/01/25 01:06:57;;;;;;;70.43;47.10;;;4.00;99.90;;;;;;5110329;28;20054;-71
2022/01/25 01:09:23;;;;;;;70.80;47.65;;;;;;;;;;5110523;28;20039;-70
2022/01/25 01:14:53;;;;;;;76.13;50.13;;;4.00;99.90;;;;;;5110199;28;20091;-70
2022/01/25 01:44:00;;;;;;;80.72;50.83;;;;;;;;;;5110002;28;20048;-70
2022/01/25 01:48:59;;;;;;;79.70;50.67;;;4.40;99.90;;;;;;5109004;28;20436;-71
2022/01/25 01:51:30;;;;;;;79.10;50.22;;;3.90;99.90;;;;;;5112298;28;20510;-70
2022/01/25 01:53:59;;;;;;;79.47;49.40;;;4.10;99.90;;;;;;5112738;28;20058;-70
2022/01/25 01:56:25;;;;;;;78.57;49.33;;;3.80;99.90;;;;;;5113828;28;20051;-70
2022/01/25 01:58:53;;;;;;;78.50;49.65;;;3.90;99.90;;;;;;5112336;28;20505;-70
2022/01/25 02:01:19;;;;;;;78.03;48.00;;;4.10;99.90;;;;;;5112371;28;20047;-70
2022/01/25 02:03:45;;;;;;;79.22;49.67;;;3.90;99.90;;;;;;5112490;28;20047;-70
2022/01/25 02:06:11;;;;;;;79.00;49.60;;;;;;;;;;5095232;28;20530;-69
2022/01/25 02:08:37;;;;;;;76.80;47.55;;;;;;;;;;5112687;28;20050;-70
2022/01/25 02:11:04;;;;;;;76.60;48.25;;;3.80;99.90;;;;;;5112439;28;20043;-69
2022/01/25 02:13:31;;;;;;;79.60;47.33;;;3.90;99.90;;;;;;5112300;28;20509;-69
2022/01/25 02:16:00;;;;;;;78.57;48.33;;;4.10;99.90;;;;;;5129455;27;20059;-69
2022/01/25 02:23:42;;;;;;;81.53;51.03;;;3.80;99.90;;;;;;5113083;28;20113;-69
2022/01/25 02:26:10;;;;;;;77.68;50.40;;;3.90;99.90;;;;;;5111597;28;20157;-69
2022/01/25 02:28:38;;;;;;;78.35;49.25;;;3.80;99.90;;;;;;5113232;28;20043;-69
2022/01/25 02:31:06;;;;;;;77.97;49.17;;;3.90;99.90;;;;;;5111752;28;20044;-69
2022/01/25 02:33:32;;;;;;;81.20;50.15;;;3.70;99.90;;;;;;5113022;28;20510;-69
2022/01/25 02:36:03;;;;;;;81.65;49.80;;;3.80;99.90;;;;;;5111812;28;20488;-70
2022/01/25 02:38:31;;;;;;;81.82;50.88;;;4.00;99.90;;;;;;5113275;28;20043;-69
2022/01/25 02:40:58;;;;;;;79.88;51.15;;;3.90;99.90;;;;;;5113375;28;20562;-69
2022/01/25 02:43:25;;;;;;;82.28;52.10;;;3.70;99.90;;;;;;5111488;28;20083;-69
2022/01/25 02:48:31;;;;;;;85.72;53.83;;;3.60;99.90;;;;;;5111718;28;20476;-70
2022/01/25 02:51:01;;;;;;;84.38;53.83;;;3.90;99.90;;;;;;5112667;27;20081;-69
2022/01/25 02:53:28;;;;;;;84.43;52.85;;;3.70;99.90;;;;;;5111137;28;20063;-69
2022/01/25 02:55:55;;;;;;;82.88;52.08;;;4.00;99.90;;;;;;5112394;28;20039;-70
2022/01/25 02:58:21;;;;;;;84.40;52.22;;;;;;;;;;5110868;28;20052;-70
2022/01/25 03:00:47;;;;;;;86.25;53.95;;;;;;;;;;5112217;28;20044;-69
2022/01/25 03:03:13;;;;;;;84.75;52.85;;;;;;;;;;5110133;28;20077;-70
2022/01/25 03:05:39;;;;;;;85.90;53.42;;;3.60;99.90;;;;;;5110839;28;20047;-69
2022/01/25 03:08:11;;;;;;;81.63;51.80;;;3.80;99.90;;;;;;5112166;28;20449;-69
2022/01/25 03:10:41;;;;;;;83.72;52.15;;;3.80;99.90;;;;;;5093764;28;20070;-69
2022/01/25 03:13:12;;;;;;;78.53;50.90;;;3.60;99.90;;;;;;5110958;28;20055;-69
2022/01/25 03:15:57;;;;;;;85.00;52.65;;;;;;;;;;5110845;28;20120;-69
2022/01/25 03:21:39;;;;;;;80.20;50.13;;;3.50;99.90;;;;;;5110920;28;20044;-69
2022/01/25 03:23:47;;;;;;;78.50;50.22;;;3.60;99.90;;;;;;5102144;28;20059;-69
2022/01/25 03:26:14;;;;;;;84.72;51.05;;;3.90;99.90;;;;;;5112044;28;20043;-69
2022/01/25 03:28:40;;;;;;;79.95;50.67;;;3.80;99.90;;;;;;5112152;28;20096;-69
2022/01/25 03:31:06;;;;;;;84.60;50.70;;;4.00;99.90;;;;;;5112106;28;20040;-69
2022/01/25 03:33:31;;;;;;;83.45;51.58;;;3.60;99.90;;;;;;5110938;28;20042;-70
2022/01/25 03:35:57;;;;;;;82.05;51.53;;;3.80;99.90;;;;;;5110661;28;20082;-69
2022/01/25 03:38:23;;;;;;;87.53;50.78;;;;;;;;;;5111797;28;20122;-69
2022/01/25 03:40:49;;;;;;;86.82;51.17;;;3.90;99.90;;;;;;5111778;28;20471;-70
2022/01/25 03:43:17;;;;;;;81.90;50.33;;;;;;;;;;5110716;28;20058;-70
2022/01/25 03:45:56;;;;;;;80.45;50.05;;;;;;;;;;5112555;28;20075;-69
2022/01/25 03:50:51;;;;;;;82.25;50.80;;;3.80;99.90;;;;;;5111943;28;20044;-70
2022/01/25 03:53:19;;;;;;;81.35;50.85;;;3.60;99.90;;;;;;5111860;28;20036;-69
2022/01/25 03:55:47;;;;;;;85.43;52.50;;;3.80;99.90;;;;;;5110682;28;20052;-70
2022/01/25 03:58:15;;;;;;;85.93;50.05;;;;;;;;;;5110722;28;20086;-69
2022/01/25 04:00:44;;;;;;;83.13;50.00;;;3.20;99.90;;;;;;5111336;28;20123;-69
2022/01/25 04:03:21;;;;;;;81.00;49.55;;;3.60;99.90;;;;;;5111135;28;20050;-69
2022/01/25 04:08:13;;;;;;;82.35;50.67;;;3.70;99.90;;;;;;5111272;28;20043;-70
2022/01/25 04:10:39;;;;;;;81.50;50.20;;;3.80;99.90;;;;;;5110868;28;20047;-69
2022/01/25 04:13:06;;;;;;;82.05;50.65;;;3.70;99.90;;;;;;5111497;28;20404;-71
2022/01/25 04:15:32;;;;;;;82.28;48.92;;;3.80;99.90;;;;;;5109035;28;20139;-69
2022/01/25 04:18:15;;;;;;;81.25;49.53;;;3.60;99.90;;;;;;5109843;28;20122;-69
2022/01/25 04:20:43;;;;;;;80.55;48.58;;;;;;;;;;5110930;28;20040;-70
2022/01/25 04:25:54;;;;;;;83.95;49.97;;;;;;;;;;5109942;28;20058;-69
2022/01/25 04:28:19;;;;;;;82.18;48.58;;;3.50;99.90;;;;;;5109451;28;20051;-69
2022/01/25 04:30:45;;;;;;;82.30;48.83;;;3.60;99.90;;;;;;5109774;28;20495;-69
2022/01/25 04:33:20;;;;;;;84.40;49.78;;;3.70;99.90;;;;;;5111168;28;20053;-69
2022/01/25 04:36:23;;;;;;;79.25;48.90;;;3.70;99.90;;;;;;5111179;28;20044;-69
2022/01/25 04:49:48;;;;;;;84.25;49.83;;;;;;;;;;5109176;28;20050;-69
2022/01/25 04:52:18;;;;;;;79.38;48.95;;;3.70;99.90;;;;;;5109291;28;20055;-70
2022/01/25 04:57:36;;;;;;;84.90;49.55;;;3.80;99.90;;;;;;5110568;28;20047;-70
2022/01/25 05:00:11;;;;;;;82.43;49.42;;;3.80;99.90;;;;;;5110743;28;20054;-70
2022/01/25 05:05:21;;;;;;;82.57;48.92;;;;;;;;;;5109542;28;20441;-69
2022/01/25 05:10:18;;;;;;;84.43;50.00;;;4.80;99.90;;;;;;5109379;28;20048;-70
2022/01/25 05:12:50;;;;;;;83.15;48.95;;;3.60;99.90;;;;;;5110402;28;20043;-69
2022/01/25 05:15:24;;;;;;;91.93;50.83;;;4.00;99.90;;;;;;5110165;28;20052;-70
2022/01/25 05:18:36;;;;;;;81.72;49.55;;;3.80;99.90;;;;;;5110374;28;20551;-69
2022/01/25 05:23:27;;;;;;;86.40;50.28;;;;;;;;;;5110319;28;20515;-70
2022/01/25 05:25:54;;;;;;;84.03;50.05;;;;;;;;;;5110506;28;20130;-70
2022/01/25 05:28:19;;;;;;;85.25;51.13;;;3.70;99.90;;;;;;5114045;28;20050;-70
2022/01/25 05:30:46;;;;;;;87.82;49.35;;;;;;;;;;5114323;28;20130;-70
2022/01/25 05:33:11;;;;;;;83.70;48.95;;;3.60;99.90;;;;;;5112668;28;20051;-71
2022/01/25 05:35:37;;;;;;;84.28;50.78;;;3.90;99.90;;;;;;5114127;28;20036;-70
2022/01/25 05:38:03;;;;;;;86.40;51.03;;;3.80;99.90;;;;;;5114168;28;20084;-70
2022/01/25 05:40:43;;;;;;;84.05;49.75;;;3.90;99.90;;;;;;5112760;28;20522;-69
2022/01/25 05:48:14;;;;;;;87.55;51.28;;;3.80;99.90;;;;;;5112983;28;20487;-71
2022/01/25 05:50:40;;;;;;;83.40;49.70;;;4.00;99.90;;;;;;5112812;28;20776;-71
2022/01/25 05:53:06;;;;;;;84.20;49.53;;;3.80;99.90;;;;;;5112600;28;20081;-71
2022/01/25 05:55:31;;;;;;;83.85;50.60;;;3.40;99.90;;;;;;5114029;28;20043;-69
2022/01/25 05:57:59;;;;;;;88.28;51.42;;;;;;;;;;5113896;28;20153;-70
2022/01/25 06:00:28;;;;;;;83.82;50.60;;;3.80;99.90;;;;;;5112383;28;20054;-70
2022/01/25 06:02:55;;;;;;;86.53;50.63;;;3.50;99.90;;;;;;5097329;27;20044;-69
2022/01/25 06:05:23;;;;;;;83.93;49.88;;;3.80;99.90;;;;;;5091237;28;20052;-70
2022/01/25 06:07:52;;;;;;;84.07;50.20;;;3.70;99.90;;;;;;5090910;28;20048;-69
2022/01/25 06:10:18;;;;;;;84.95;50.60;;;;;;;;;;5121155;27;20046;-70
2022/01/25 06:12:45;;;;;;;88.45;51.63;;;4.30;99.90;;;;;;5110826;27;20048;-70
2022/01/25 06:15:14;;;;;;;91.70;51.88;;;3.80;99.90;;;;;;5123937;27;20094;-70
2022/01/25 06:17:40;;;;;;;87.55;50.88;;;3.80;99.90;;;;;;5124802;27;20392;-70
2022/01/25 06:20:07;;;;;;;87.40;51.17;;;3.60;99.90;;;;;;5110801;28;20766;-70
2022/01/25 06:22:33;;;;;;;87.05;50.60;;;4.40;99.90;;;;;;5111361;27;20039;-69
2022/01/25 06:25:03;;;;;;;87.35;50.95;;;3.70;99.90;;;;;;5111589;28;20039;-70
2022/01/25 06:27:31;;;;;;;87.13;50.97;;;3.80;99.90;;;;;;5112869;28;20047;-70
2022/01/25 06:29:57;;;;;;;90.63;53.13;;;;;;;;;;5113112;28;20054;-70
2022/01/25 06:32:23;;;;;;;86.20;50.63;;;3.50;99.90;;;;;;5111588;28;20044;-70
2022/01/25 06:34:48;;;;;;;85.60;49.58;;;4.10;99.90;;;;;;5111372;28;20054;-70
2022/01/25 06:37:17;;;;;;;85.55;49.80;;;3.50;99.90;;;;;;5110681;28;20075;-70
2022/01/25 06:39:43;;;;;;;86.70;49.92;;;;;;;;;;5128526;27;20051;-69
2022/01/25 06:42:09;;;;;;;90.43;52.35;;;;;;;;;;5111383;28;20054;-69
2022/01/25 06:44:37;;;;;;;94.15;52.00;;;;;;;;;;5112563;28;20494;-70
2022/01/25 06:47:05;;;;;;;87.18;50.60;;;3.80;99.90;;;;;;5112712;28;20051;-70
2022/01/25 06:49:30;;;;;;;91.30;52.05;;;3.70;99.90;;;;;;5112501;28;20043;-69
2022/01/25 06:51:58;;;;;;;92.63;52.50;;;3.50;99.90;;;;;;5112995;28;20391;-70
2022/01/25 06:54:24;;;;;;;89.22;50.50;;;;;;;;;;5111295;28;20054;-70
2022/01/25 06:56:49;;;;;;;91.85;51.50;;;3.80;99.90;;;;;;5111029;28;20051;-70
2022/01/25 06:59:17;;;;;;;92.00;51.83;;;3.60;99.90;;;;;;5094061;28;20056;-70
2022/01/25 07:01:43;;;;;;;89.80;50.92;;;3.70;99.90;;;;;;5112443;28;20035;-70
2022/01/25 07:04:08;;;;;;;88.95;51.10;;;3.40;99.90;;;;;;5112767;28;20441;-70
2022/01/25 07:06:38;;;;;;;92.43;51.88;;;3.90;99.90;;;;;;5128615;27;20044;-70
2022/01/25 07:09:04;;;;;;;90.78;51.08;;;3.80;99.90;;;;;;5112673;28;20395;-70
2022/01/25 07:11:30;;;;;;;90.22;52.45;;;3.80;99.90;;;;;;5111447;28;20819;-70
2022/01/25 07:13:56;;;;;;;89.07;50.63;;;3.70;99.90;;;;;;5112110;28;20146;-70
2022/01/25 07:16:22;;;;;;;93.03;51.15;;;4.10;99.90;;;;;;5121800;27;20089;-70
2022/01/25 07:18:48;;;;;;;94.40;51.03;;;;;;;;;;5115320;27;20071;-69
2022/01/25 07:21:16;;;;;;;93.63;50.97;;;4.00;99.90;;;;;;5111026;28;20040;-71
2022/01/25 07:23:42;;;;;;;92.05;51.58;;;3.60;99.90;;;;;;5112190;28;20104;-71
2022/01/25 07:26:08;;;;;;;90.00;51.00;;;;;;;;;;5110010;28;20043;-71
2022/01/25 07:28:36;;;;;;;91.80;49.83;;;;;;;;;;5110601;28;20421;-71
2022/01/25 07:31:05;;;;;;;89.90;50.50;;;3.80;99.90;;;;;;5110403;28;20097;-71
2022/01/25 07:33:31;;;;;;;91.78;51.58;;;4.00;99.90;;;;;;5090309;28;20052;-71
2022/01/25 07:35:57;;;;;;;97.80;52.75;;;3.60;99.90;;;;;;5093385;28;20047;-71
2022/01/25 07:38:23;;;;;;;100.93;53.55;;;3.70;99.90;;;;;;5110378;28;20046;-71
2022/01/25 07:40:49;;;;;;;95.47;52.45;;;;;;;;;;5109672;28;20043;-71
2022/01/25 07:43:15;;;;;;;93.10;52.33;;;;;;;;;;5108642;28;20126;-71
2022/01/25 07:45:42;;;;;;;86.22;49.90;;;5.10;99.90;;;;;;5109693;28;20178;-71
2022/01/25 07:48:10;;;;;;;93.32;51.35;;;3.90;99.90;;;;;;5109819;28;20072;-71
2022/01/25 07:50:37;;;;;;;99.35;50.83;;;3.50;99.90;;;;;;5108992;28;20100;-71
2022/01/25 07:53:03;;;;;;;133.30;55.05;;;3.50;99.90;;;;;;5091977;28;20471;-71
2022/01/25 07:55:29;;;;;;;88.90;48.70;;;3.60;99.90;;;;;;5108840;28;20104;-71
2022/01/25 07:57:55;;;;;;;95.40;52.13;;;;;;;;;;5091911;28;20074;-71
2022/01/25 08:00:21;;;;;;;100.60;51.75;;;4.40;99.90;;;;;;5105754;28;20491;-71
2022/01/25 08:02:51;;;;;;;88.15;48.63;;;3.80;99.90;;;;;;5110055;28;20043;-71
2022/01/25 08:05:18;;;;;;;93.32;50.95;;;3.90;99.90;;;;;;5108967;28;20035;-70
2022/01/25 08:07:45;;;;;;;89.32;51.22;;;4.00;99.90;;;;;;5108395;28;20046;-70
2022/01/25 08:10:11;;;;;;;94.97;50.75;;;3.90;99.90;;;;;;5108430;28;20088;-70
2022/01/25 08:12:37;;;;;;;96.30;52.15;;;;;;;;;;5110002;28;20043;-70
2022/01/25 08:15:07;;;;;;;90.55;52.25;;;3.90;99.90;;;;;;5109695;28;20901;-70
2022/01/25 08:17:33;;;;;;;92.18;51.67;;;3.70;99.90;;;;;;5110170;28;20453;-70
2022/01/25 08:19:59;;;;;;;88.70;50.70;;;3.60;99.90;;;;;;5108562;28;20502;-70
2022/01/25 08:22:25;;;;;;;90.20;51.35;;;4.50;99.90;;;;;;5110805;28;20043;-70
2022/01/25 08:24:52;;;;;;;90.45;52.10;;;3.80;99.90;;;;;;5110846;28;20433;-70
2022/01/25 08:27:22;;;;;;;98.95;52.33;;;3.90;99.90;;;;;;5109031;27;20036;-70
2022/01/25 08:29:49;;;;;;;100.13;52.15;;;4.00;99.90;;;;;;5097310;28;20055;-70
2022/01/25 08:32:15;;;;;;;98.25;52.50;;;3.80;99.90;;;;;;5108588;28;20048;-70
2022/01/25 08:34:40;;;;;;;90.20;50.17;;;3.70;99.90;;;;;;5110121;28;20044;-70
2022/01/25 08:37:06;;;;;;;91.82;50.22;;;;;;;;;;5108531;28;20035;-70
2022/01/25 08:39:34;;;;;;;91.80;50.85;;;3.80;99.90;;;;;;5108306;28;20484;-70
2022/01/25 08:42:00;;;;;;;93.55;51.08;;;4.20;99.90;;;;;;5109446;28;20039;-70
2022/01/25 08:44:26;;;;;;;93.18;50.88;;;3.80;99.90;;;;;;5109568;28;20498;-71
2022/01/25 08:46:52;;;;;;;96.63;50.90;;;;;;;;;;5107930;28;20758;-71
2022/01/25 08:49:20;;;;;;;93.03;50.67;;;;;;;;;;5107942;28;20039;-71
2022/01/25 08:51:48;;;;;;;92.07;49.97;;;4.10;99.90;;;;;;5108855;28;20123;-71
2022/01/25 08:54:14;;;;;;;91.20;49.78;;;4.50;99.90;;;;;;5108692;28;20435;-71
2022/01/25 08:56:41;;;;;;;93.00;51.22;;;3.90;99.90;;;;;;5107900;28;20047;-71
2022/01/25 08:59:08;;;;;;;91.88;49.40;;;3.90;99.90;;;;;;5108214;28;20096;-71
2022/01/25 09:01:34;;;;;;;89.80;50.35;;;4.60;99.90;;;;;;5111787;28;20050;-71
2022/01/25 09:04:01;;;;;;;88.75;49.08;;;4.00;99.90;;;;;;5114166;28;20035;-71
2022/01/25 09:06:27;;;;;;;94.80;49.83;;;4.10;99.90;;;;;;5113437;28;20390;-71
2022/01/25 09:09:04;;;;;;;88.03;48.63;;;4.00;99.90;;;;;;5112893;28;20194;-71
2022/01/25 09:11:31;;;;;;;90.95;49.85;;;4.00;99.90;;;;;;5113389;28;20044;-71
2022/01/25 09:13:57;;;;;;;89.07;49.45;;;3.80;99.90;;;;;;5112976;27;20039;-71
2022/01/25 09:16:23;;;;;;;86.85;48.60;;;;;;;;;;5111787;28;20059;-71
2022/01/25 09:18:52;;;;;;;91.88;49.30;;;;;;;;;;5112460;28;20049;-71
2022/01/25 09:21:18;;;;;;;87.00;48.55;;;4.10;99.90;;;;;;5113464;28;20088;-71
2022/01/25 09:23:44;;;;;;;90.03;48.58;;;4.10;99.90;;;;;;5112835;28;20044;-71
2022/01/25 09:26:10;;;;;;;92.47;48.97;;;4.60;99.90;;;;;;5112610;28;20044;-71
2022/01/25 09:28:36;;;;;;;90.90;49.33;;;4.10;99.90;;;;;;5113206;28;20047;-71
2022/01/25 09:31:05;;;;;;;92.22;49.00;;;4.00;99.90;;;;;;5110047;28;20556;-71
2022/01/25 09:33:31;;;;;;;91.45;49.35;;;;;;;;;;5113011;28;20043;-70
2022/01/25 09:35:57;;;;;;;89.25;49.03;;;4.40;99.90;;;;;;5112918;28;20032;-71
2022/01/25 09:38:24;;;;;;;92.18;49.55;;;3.90;99.90;;;;;;5111309;28;20395;-71
2022/01/25 09:40:50;;;;;;;89.60;48.50;;;4.30;99.90;;;;;;5112696;28;20540;-71
2022/01/25 09:43:16;;;;;;;88.97;49.00;;;4.20;99.90;;;;;;5114294;28;20060;-71
2022/01/25 09:45:42;;;;;;;91.47;49.53;;;4.10;99.90;;;;;;5112808;28;20028;-71
2022/01/25 09:48:09;;;;;;;99.10;48.58;;;4.00;99.90;;;;;;5113928;28;20437;-70
2022/01/25 09:50:40;;;;;;;89.38;48.65;;;4.20;99.90;;;;;;5112528;28;20051;-71
2022/01/25 09:53:07;;;;;;;99.88;48.13;;;3.90;99.90;;;;;;5112211;28;20127;-71
2022/01/25 09:55:35;;;;;;;96.05;49.95;;;4.00;99.90;;;;;;5112574;28;20097;-71
2022/01/25 09:58:02;;;;;;;89.50;48.67;;;4.60;99.90;;;;;;5112375;28;20050;-71
2022/01/25 10:00:30;;;;;;;86.45;47.17;;;4.20;99.90;;;;;;5112634;28;20075;-71
2022/01/25 10:03:11;;;;;;;92.63;47.58;;;4.30;99.90;;;;;;5112224;28;20048;-71
2022/01/25 10:05:43;;;;;;;87.40;46.42;;;4.10;99.90;;;;;;5112022;28;20467;-71
2022/01/25 10:08:20;;;;;;;86.43;48.03;;;4.20;99.90;;;;;;5113456;28;20074;-70
2022/01/25 10:10:52;;;;;;;83.38;46.63;;;3.80;99.90;;;;;;5111595;28;20047;-70
2022/01/25 10:13:22;;;;;;;89.57;47.33;;;4.10;99.90;;;;;;5111548;28;20040;-70
2022/01/25 10:16:05;;;;;;;86.50;45.50;;;4.30;99.90;;;;;;5112894;28;20048;-70
2022/01/25 10:18:36;;;;;;;87.35;47.00;;;4.20;99.90;;;;;;5113330;28;20398;-70
2022/01/25 10:21:03;;;;;;;94.28;49.25;;;4.50;99.90;;;;;;5111838;28;20054;-70
2022/01/25 10:23:31;;;;;;;88.47;47.10;;;;;;;;;;5113177;28;20047;-70
2022/01/25 10:25:59;;;;;;;84.35;47.30;;;4.30;99.90;;;;;;5113147;28;20043;-71
2022/01/25 10:28:29;;;;;;;85.05;46.72;;;3.80;99.90;;;;;;5113038;28;20097;-71
2022/01/25 10:31:00;;;;;;;91.88;47.72;;;3.90;99.90;;;;;;5111795;28;20127;-71
2022/01/25 10:33:40;;;;;;;86.50;47.03;;;4.30;99.90;;;;;;5112902;28;20043;-71
2022/01/25 10:36:15;;;;;;;86.60;46.33;;;4.30;99.90;;;;;;5112984;28;20053;-71
2022/01/25 10:38:47;;;;;;;86.15;47.03;;;4.30;99.90;;;;;;5111445;28;20155;-71
2022/01/25 10:41:18;;;;;;;85.18;46.50;;;5.00;99.90;;;;;;5112868;28;20052;-71
2022/01/25 10:43:46;;;;;;;90.38;46.92;;;3.80;99.90;;;;;;5113198;28;20203;-72
2022/01/25 10:46:19;;;;;;;84.40;46.80;;;4.50;99.90;;;;;;5112815;28;20083;-71
2022/01/25 10:48:51;;;;;;;88.18;46.70;;;4.40;99.90;;;;;;5094413;28;20126;-71
2022/01/25 10:51:35;;;;;;;82.90;46.13;;;4.30;99.90;;;;;;5110839;28;20498;-72
2022/01/25 10:54:36;;;;;;;88.38;46.05;;;4.40;99.90;;;;;;5112484;28;20050;-72
2022/01/25 10:57:01;;;;;;;88.13;46.83;;;4.30;99.90;;;;;;5066305;28;20160;-71
2022/01/25 10:59:32;;;;;;;81.38;46.38;;;4.90;99.90;;;;;;5128591;27;20122;-72
2022/01/25 11:02:00;;;;;;;86.57;46.03;;;4.60;99.90;;;;;;5094514;28;20429;-72
2022/01/25 11:04:34;;;;;;;95.53;47.90;;;4.50;99.90;;;;;;5112896;28;20465;-71
2022/01/25 11:07:19;;;;;;;87.05;45.85;;;4.00;99.90;;;;;;5112620;28;20043;-72
2022/01/25 11:09:48;;;;;;;87.43;47.28;;;4.50;99.90;;;;;;5110867;28;20490;-70
2022/01/25 11:12:18;;;;;;;89.25;46.33;;;4.40;99.90;;;;;;5112026;28;20086;-70
2022/01/25 11:14:58;;;;;;;86.75;46.08;;;4.50;99.90;;;;;;5093098;28;20132;-70
2022/01/25 11:17:27;;;;;;;85.90;45.83;;;4.40;99.90;;;;;;5090211;28;20105;-70
2022/01/25 11:19:55;;;;;;;88.78;46.53;;;4.40;99.90;;;;;;5091655;28;20051;-70
2022/01/25 11:22:22;;;;;;;91.55;47.40;;;4.50;99.90;;;;;;5110287;28;20048;-71
2022/01/25 11:25:00;;;;;;;89.60;46.17;;;4.50;99.90;;;;;;5111682;28;20040;-70
2022/01/25 11:27:28;;;;;;;90.22;46.63;;;4.40;99.90;;;;;;5110451;28;20046;-70
2022/01/25 11:29:57;;;;;;;92.40;47.08;;;4.60;99.90;;;;;;5110768;28;20043;-70
2022/01/25 11:32:27;;;;;;;84.78;45.45;;;4.80;99.90;;;;;;5109594;28;20058;-70
2022/01/25 11:34:54;;;;;;;95.82;46.33;;;4.60;99.90;;;;;;5108795;28;20403;-70
2022/01/25 11:37:19;;;;;;;94.10;47.85;;;4.60;99.90;;;;;;5110550;28;20046;-70
2022/01/25 11:39:49;;;;;;;92.47;46.97;;;4.40;99.90;;;;;;5111385;28;20043;-70
2022/01/25 11:42:18;;;;;;;96.60;48.50;;;4.50;99.90;;;;;;5109992;28;20539;-71
2022/01/25 11:44:52;;;;;;;95.95;48.40;;;4.50;99.90;;;;;;5111563;28;20563;-70
2022/01/25 11:47:21;;;;;;;96.25;48.10;;;4.60;99.90;;;;;;5110712;28;20449;-70
2022/01/25 11:50:06;;;;;;;92.88;47.05;;;4.40;99.90;;;;;;5111460;27;20065;-69
2022/01/25 11:52:32;;;;;;;94.82;48.58;;;4.50;99.90;;;;;;5111556;28;20391;-69
2022/01/25 11:55:16;;;;;;;85.70;47.35;;;4.00;99.90;;;;;;5111324;28;20039;-70
2022/01/25 11:57:57;;;;;;;87.05;45.95;;;4.60;99.90;;;;;;5109882;28;20185;-70
2022/01/25 12:00:39;;;;;;;90.38;46.30;;;4.70;99.90;;;;;;5111299;28;20046;-70
2022/01/25 12:03:35;;;;;;;97.20;47.10;;;5.00;99.90;;;;;;5111219;28;20051;-70
2022/01/25 12:06:08;;;;;;;89.38;45.03;;;4.60;99.90;;;;;;5111303;28;20054;-70
2022/01/25 12:08:53;;;;;;;88.13;47.10;;;4.60;99.90;;;;;;5092396;28;20043;-70
2022/01/25 12:11:29;;;;;;;91.97;47.85;;;4.70;99.90;;;;;;5091251;28;20043;-70
2022/01/25 12:14:31;;;;;;;88.97;46.65;;;4.60;99.90;;;;;;5107083;28;20547;-70
2022/01/25 12:17:02;;;;;;;90.95;45.95;;;4.70;99.90;;;;;;5108472;28;20399;-70
2022/01/25 12:19:37;;;;;;;92.15;47.05;;;4.40;99.90;;;;;;5108925;27;20090;-70
2022/01/25 12:22:15;;;;;;;92.82;45.75;;;4.60;99.90;;;;;;5110387;28;21404;-70
2022/01/25 12:24:49;;;;;;;93.35;48.03;;;4.60;99.90;;;;;;5108884;28;20043;-70
2022/01/25 12:27:55;;;;;;;89.32;46.05;;;4.60;99.90;;;;;;5109653;28;20057;-70
2022/01/25 12:30:43;;;;;;;92.80;46.65;;;4.60;99.90;;;;;;5110491;28;20043;-70
2022/01/25 12:33:27;;;;;;;93.03;47.15;;;4.50;99.90;;;;;;5108493;28;20076;-70
2022/01/25 12:35:59;;;;;;;84.78;44.35;;;4.70;99.90;;;;;;5107049;28;20053;-70
2022/01/25 12:38:39;;;;;;;93.60;46.15;;;4.50;99.90;;;;;;5108259;28;20546;-70
2022/01/25 12:41:20;;;;;;;89.95;45.67;;;4.60;99.90;;;;;;5109636;28;20130;-70
2022/01/25 12:43:53;;;;;;;89.63;45.83;;;4.10;99.90;;;;;;5107193;28;20055;-70
2022/01/25 12:46:24;;;;;;;86.65;45.47;;;4.70;99.90;;;;;;5110570;28;20040;-70
2022/01/25 12:49:10;;;;;;;87.13;44.97;;;5.10;99.90;;;;;;5110398;28;20046;-70
2022/01/25 12:51:38;;;;;;;96.00;45.22;;;3.70;99.90;;;;;;5111243;28;20450;-70
2022/01/25 12:54:10;;;;;;;93.13;44.90;;;4.40;99.90;;;;;;5109834;28;20089;-70
2022/01/25 12:56:40;;;;;;;91.97;45.17;;;5.00;99.90;;;;;;5109607;28;20533;-70
2022/01/25 12:59:11;;;;;;;85.00;46.13;;;4.50;99.90;;;;;;5110461;28;20175;-70
2022/01/25 13:01:40;;;;;;;92.82;46.58;;;4.60;99.90;;;;;;5110605;28;20044;-70
2022/01/25 13:04:07;;;;;;;93.57;45.83;;;4.50;99.90;;;;;;5108770;28;20546;-70
2022/01/25 13:06:41;;;;;;;97.30;46.97;;;4.60;99.90;;;;;;5109309;28;20122;-70
2022/01/25 13:09:16;;;;;;;83.82;43.80;;;4.60;99.90;;;;;;5108951;28;20391;-70
2022/01/25 13:12:11;;;;;;;88.10;45.83;;;4.60;99.90;;;;;;5109439;28;20051;-70
2022/01/25 13:14:50;;;;;;;86.43;44.08;;;4.70;99.90;;;;;;5106907;28;20090;-70
2022/01/25 13:17:21;;;;;;;93.30;45.35;;;4.70;99.90;;;;;;5125973;28;20047;-71
2022/01/25 13:19:54;;;;;;;89.25;46.33;;;4.50;99.90;;;;;;5109530;28;20046;-71
2022/01/25 13:22:26;;;;;;;90.93;45.22;;;4.70;99.90;;;;;;5107562;28;20047;-71
2022/01/25 13:24:59;;;;;;;91.55;45.33;;;4.80;99.90;;;;;;5108127;28;20392;-70
2022/01/25 13:27:30;;;;;;;89.53;45.40;;;4.80;99.90;;;;;;5107537;28;20040;-70
2022/01/25 13:32:47;;;;;;;93.32;45.75;;;4.90;99.90;;;;;;5109591;28;20557;-71
2022/01/25 13:35:27;;;;;;;86.72;44.70;;;4.70;99.90;;;;;;5109635;28;20375;-71
2022/01/25 13:38:13;;;;;;;89.15;43.78;;;4.60;99.90;;;;;;5106296;28;20364;-71
2022/01/25 13:46:06;;;;;;;80.03;43.80;;;;;;;;;;5107753;28;20051;-71
2022/01/25 13:48:34;;;;;;;80.43;42.65;;;4.50;99.90;;;;;;5112041;27;20479;-71
2022/01/25 13:51:03;;;;;;;89.35;43.28;;;4.60;99.90;;;;;;5111457;28;20051;-71
2022/01/25 13:53:29;;;;;;;81.70;42.75;;;4.40;99.90;;;;;;5112875;28;20051;-71
2022/01/25 13:55:59;;;;;;;82.53;42.65;;;4.60;99.90;;;;;;5109517;28;20047;-71
2022/01/25 13:58:25;;;;;;;82.57;43.17;;;;;;;;;;5110671;28;20055;-71
2022/01/25 14:00:53;;;;;;;90.13;44.80;;;5.10;99.90;;;;;;5112133;28;20058;-71
2022/01/25 14:03:34;;;;;;;86.20;43.40;;;4.80;99.90;;;;;;5094487;28;20079;-71
2022/01/25 14:06:00;;;;;;;86.53;44.47;;;;;;;;;;5125193;27;20050;-70
2022/01/25 14:08:39;;;;;;;90.32;42.50;;;4.60;99.90;;;;;;5110898;28;20147;-70
2022/01/25 14:11:30;;;;;;;87.30;43.50;;;4.50;99.90;;;;;;5112414;28;20450;-70
2022/01/25 14:24:41;;;;;;;90.95;44.10;;;;;;;;;;5112930;28;20074;-70
2022/01/25 14:27:21;;;;;;;88.38;43.20;;;4.80;99.90;;;;;;5111407;28;20114;-70
2022/01/25 14:29:51;;;;;;;89.47;42.55;;;4.50;99.90;;;;;;5112954;28;20042;-70
2022/01/25 14:32:25;;;;;;;89.95;43.47;;;4.60;99.90;;;;;;5094618;28;20054;-70
2022/01/25 14:35:18;;;;;;;83.22;41.60;;;5.10;99.90;;;;;;5113379;28;20131;-70
2022/01/25 14:37:49;;;;;;;88.85;42.90;;;4.50;99.90;;;;;;5112194;27;20128;-70
2022/01/25 14:40:17;;;;;;;89.60;42.50;;;4.50;99.90;;;;;;5113198;28;20047;-70
2022/01/25 14:42:44;;;;;;;87.13;42.10;;;4.40;99.90;;;;;;5112977;28;20478;-70
2022/01/25 14:45:20;;;;;;;88.70;43.67;;;4.50;99.90;;;;;;5111859;28;20385;-70
2022/01/25 14:47:48;;;;;;;89.40;42.63;;;4.20;99.90;;;;;;5112721;28;20058;-70
2022/01/25 14:50:32;;;;;;;84.70;42.05;;;4.40;99.90;;;;;;5112649;28;20089;-70
2022/01/25 14:53:06;;;;;;;84.38;42.13;;;4.40;99.90;;;;;;5112542;28;20046;-70
2022/01/25 14:55:34;;;;;;;89.00;43.65;;;4.40;99.90;;;;;;5111504;28;20066;-70
2022/01/25 15:00:56;;;;;;;81.32;41.13;;;4.20;99.90;;;;;;5089770;28;20063;-70
2022/01/25 15:03:23;;;;;;;82.32;41.75;;;4.30;99.90;;;;;;5110101;28;20052;-70
2022/01/25 15:05:49;;;;;;;82.28;40.88;;;;;;;;;;5110205;28;20573;-70
2022/01/25 15:08:18;;;;;;;82.70;41.67;;;4.40;99.90;;;;;;5111557;28;20050;-70
2022/01/25 15:10:45;;;;;;;86.40;41.92;;;4.40;99.90;;;;;;5111257;28;20047;-70
2022/01/25 15:13:13;;;;;;;89.18;42.15;;;4.30;99.90;;;;;;5112192;28;20057;-70
2022/01/25 15:15:57;;;;;;;91.80;43.67;;;4.30;99.90;;;;;;5111818;28;20060;-70